sensor_id;sensor_type;location;lat;lon;timestamp;pressure;altitude;pressure_sealevel;temperature
20867;BMP280;10593;48.398;10.698;2022-12-07T00:01:33;96132.03;;;10.00
20867;BMP280;10593;48.398;10.698;2022-12-07T00:04:02;96131.16;;;10.01
20867;BMP280;10593;48.398;10.698;2022-12-07T00:06:37;96138.84;;;9.99
20867;BMP280;10593;48.398;10.698;2022-12-07T00:09:10;96136.28;;;10.01
20867;BMP280;10593;48.398;10.698;2022-12-07T00:11:38;96132.03;;;9.98
20867;BMP280;10593;48.398;10.698;2022-12-07T00:14:07;96133.72;;;9.99
20867;BMP280;10593;48.398;10.698;2022-12-07T00:16:35;96129.47;;;9.98
20867;BMP280;10593;48.398;10.698;2022-12-07T00:19:03;96132.91;;;9.99
20867;BMP280;10593;48.398;10.698;2022-12-07T00:21:34;96127.75;;;9.99
20867;BMP280;10593;48.398;10.698;2022-12-07T00:24:02;96125.22;;;9.97
20867;BMP280;10593;48.398;10.698;2022-12-07T00:26:31;96130.34;;;9.97
20867;BMP280;10593;48.398;10.698;2022-12-07T00:29:22;96136.34;;;9.98
20867;BMP280;10593;48.398;10.698;2022-12-07T00:31:49;96121.81;;;9.97
20867;BMP280;10593;48.398;10.698;2022-12-07T00:34:18;96124.38;;;9.97
20867;BMP280;10593;48.398;10.698;2022-12-07T00:36:44;96130.34;;;9.97
20867;BMP280;10593;48.398;10.698;2022-12-07T00:39:09;96133.78;;;9.98
20867;BMP280;10593;48.398;10.698;2022-12-07T00:41:35;96126.94;;;9.97
20867;BMP280;10593;48.398;10.698;2022-12-07T00:44:01;96126.94;;;9.97
20867;BMP280;10593;48.398;10.698;2022-12-07T00:46:27;96124.38;;;9.97
20867;BMP280;10593;48.398;10.698;2022-12-07T00:48:53;96123.53;;;9.96
20867;BMP280;10593;48.398;10.698;2022-12-07T00:51:22;96117.50;;;9.97
20867;BMP280;10593;48.398;10.698;2022-12-07T00:53:48;96117.56;;;9.96
20867;BMP280;10593;48.398;10.698;2022-12-07T00:56:22;96126.94;;;9.97
20867;BMP280;10593;48.398;10.698;2022-12-07T00:58:57;96126.94;;;9.97
20867;BMP280;10593;48.398;10.698;2022-12-07T01:01:26;96120.97;;;9.96
20867;BMP280;10593;48.398;10.698;2022-12-07T01:03:52;96120.13;;;9.96
20867;BMP280;10593;48.398;10.698;2022-12-07T01:06:21;96120.97;;;9.95
20867;BMP280;10593;48.398;10.698;2022-12-07T01:08:47;96118.38;;;9.96
20867;BMP280;10593;48.398;10.698;2022-12-07T01:11:17;96122.69;;;9.96
20867;BMP280;10593;48.398;10.698;2022-12-07T01:13:44;96121.84;;;9.95
20867;BMP280;10593;48.398;10.698;2022-12-07T01:16:14;96122.69;;;9.96
20867;BMP280;10593;48.398;10.698;2022-12-07T01:18:41;96131.22;;;9.95
20867;BMP280;10593;48.398;10.698;2022-12-07T01:21:10;96124.41;;;9.95
20867;BMP280;10593;48.398;10.698;2022-12-07T01:23:37;96126.97;;;9.95
20867;BMP280;10593;48.398;10.698;2022-12-07T01:26:07;96129.53;;;9.95
20867;BMP280;10593;48.398;10.698;2022-12-07T01:28:33;96130.41;;;9.94
20867;BMP280;10593;48.398;10.698;2022-12-07T01:31:07;96131.22;;;9.95
20867;BMP280;10593;48.398;10.698;2022-12-07T01:33:36;96127.84;;;9.94
20867;BMP280;10593;48.398;10.698;2022-12-07T01:38:54;96139.81;;;9.94
20867;BMP280;10593;48.398;10.698;2022-12-07T01:41:27;96132.97;;;9.93
20867;BMP280;10593;48.398;10.698;2022-12-07T01:44:18;96128.72;;;9.92
20867;BMP280;10593;48.398;10.698;2022-12-07T01:47:04;96135.59;;;9.91
20867;BMP280;10593;48.398;10.698;2022-12-07T01:49:44;96129.59;;;9.91
20867;BMP280;10593;48.398;10.698;2022-12-07T01:52:23;96127.09;;;9.89
20867;BMP280;10593;48.398;10.698;2022-12-07T01:54:57;96122.78;;;9.90
20867;BMP280;10593;48.398;10.698;2022-12-07T01:57:24;96127.91;;;9.90
20867;BMP280;10593;48.398;10.698;2022-12-07T01:59:53;96121.94;;;9.89
20867;BMP280;10593;48.398;10.698;2022-12-07T02:05:24;96118.53;;;9.89
20867;BMP280;10593;48.398;10.698;2022-12-07T02:07:53;96127.09;;;9.89
20867;BMP280;10593;48.398;10.698;2022-12-07T02:10:27;96119.38;;;9.89
20867;BMP280;10593;48.398;10.698;2022-12-07T02:12:59;96124.53;;;9.89
20867;BMP280;10593;48.398;10.698;2022-12-07T02:16:08;96123.66;;;9.87
20867;BMP280;10593;48.398;10.698;2022-12-07T02:25:09;96118.66;;;9.81
20867;BMP280;10593;48.398;10.698;2022-12-07T02:27:52;96110.97;;;9.80
20867;BMP280;10593;48.398;10.698;2022-12-07T02:30:25;96121.22;;;9.80
20867;BMP280;10593;48.398;10.698;2022-12-07T02:33:11;96113.53;;;9.80
20867;BMP280;10593;48.398;10.698;2022-12-07T02:35:55;96109.25;;;9.82
20867;BMP280;10593;48.398;10.698;2022-12-07T02:38:43;96112.66;;;9.81
20867;BMP280;10593;48.398;10.698;2022-12-07T02:41:20;96105.81;;;9.81
20867;BMP280;10593;48.398;10.698;2022-12-07T02:44:02;96115.22;;;9.81
20867;BMP280;10593;48.398;10.698;2022-12-07T02:46:36;96110.09;;;9.82
20867;BMP280;10593;48.398;10.698;2022-12-07T02:49:04;96101.56;;;9.82
20867;BMP280;10593;48.398;10.698;2022-12-07T02:51:32;96094.69;;;9.82
20867;BMP280;10593;48.398;10.698;2022-12-07T02:53:59;96099.00;;;9.82
20867;BMP280;10593;48.398;10.698;2022-12-07T02:56:51;96100.69;;;9.83
20867;BMP280;10593;48.398;10.698;2022-12-07T02:59:29;96090.41;;;9.83
20867;BMP280;10593;48.398;10.698;2022-12-07T03:11:13;96096.50;;;9.76
20867;BMP280;10593;48.398;10.698;2022-12-07T03:16:38;96099.06;;;9.77
20867;BMP280;10593;48.398;10.698;2022-12-07T03:19:19;96102.47;;;9.78
20867;BMP280;10593;48.398;10.698;2022-12-07T03:21:52;96099.03;;;9.79
20867;BMP280;10593;48.398;10.698;2022-12-07T03:24:30;96107.59;;;9.78
20867;BMP280;10593;48.398;10.698;2022-12-07T03:27:08;96101.56;;;9.80
20867;BMP280;10593;48.398;10.698;2022-12-07T03:29:41;96099.03;;;9.79
20867;BMP280;10593;48.398;10.698;2022-12-07T03:32:19;96097.31;;;9.79
20867;BMP280;10593;48.398;10.698;2022-12-07T03:35:08;96103.28;;;9.80
20867;BMP280;10593;48.398;10.698;2022-12-07T03:40:40;96107.59;;;9.78
20867;BMP280;10593;48.398;10.698;2022-12-07T03:43:09;96107.59;;;9.78
20867;BMP280;10593;48.398;10.698;2022-12-07T03:45:47;96103.31;;;9.78
20867;BMP280;10593;48.398;10.698;2022-12-07T03:49:00;96105.91;;;9.77
20867;BMP280;10593;48.398;10.698;2022-12-07T03:51:56;96104.22;;;9.76
20867;BMP280;10593;48.398;10.698;2022-12-07T03:54:33;96098.25;;;9.75
20867;BMP280;10593;48.398;10.698;2022-12-07T03:57:02;96105.06;;;9.76
20867;BMP280;10593;48.398;10.698;2022-12-07T03:59:30;96099.94;;;9.76
20867;BMP280;10593;48.398;10.698;2022-12-07T04:02:02;96106.75;;;9.77
20867;BMP280;10593;48.398;10.698;2022-12-07T04:04:28;96108.47;;;9.77
20867;BMP280;10593;48.398;10.698;2022-12-07T04:06:53;96111.88;;;9.77
20867;BMP280;10593;48.398;10.698;2022-12-07T04:09:19;96107.59;;;9.78
20867;BMP280;10593;48.398;10.698;2022-12-07T04:11:45;96099.91;;;9.78
20867;BMP280;10593;48.398;10.698;2022-12-07T04:14:12;96098.19;;;9.78
20867;BMP280;10593;48.398;10.698;2022-12-07T04:16:53;96103.31;;;9.78
20867;BMP280;10593;48.398;10.698;2022-12-07T04:19:25;96100.75;;;9.78
20867;BMP280;10593;48.398;10.698;2022-12-07T04:21:51;96097.31;;;9.78
20867;BMP280;10593;48.398;10.698;2022-12-07T04:24:18;96100.75;;;9.78
20867;BMP280;10593;48.398;10.698;2022-12-07T04:26:44;96093.06;;;9.77
20867;BMP280;10593;48.398;10.698;2022-12-07T04:29:11;96103.31;;;9.78
20867;BMP280;10593;48.398;10.698;2022-12-07T04:31:37;96093.88;;;9.79
20867;BMP280;10593;48.398;10.698;2022-12-07T04:34:03;96094.75;;;9.78
20867;BMP280;10593;48.398;10.698;2022-12-07T04:36:29;96094.75;;;9.78
20867;BMP280;10593;48.398;10.698;2022-12-07T04:38:55;96093.94;;;9.77
20867;BMP280;10593;48.398;10.698;2022-12-07T04:41:22;96093.06;;;9.78
20867;BMP280;10593;48.398;10.698;2022-12-07T04:44:01;96093.06;;;9.78
20867;BMP280;10593;48.398;10.698;2022-12-07T04:46:30;96087.06;;;9.78
20867;BMP280;10593;48.398;10.698;2022-12-07T04:48:56;96089.63;;;9.78
20867;BMP280;10593;48.398;10.698;2022-12-07T04:51:26;96098.19;;;9.78
20867;BMP280;10593;48.398;10.698;2022-12-07T04:53:53;96096.50;;;9.77
20867;BMP280;10593;48.398;10.698;2022-12-07T04:56:21;96099.91;;;9.78
20867;BMP280;10593;48.398;10.698;2022-12-07T04:58:48;96099.91;;;9.78
20867;BMP280;10593;48.398;10.698;2022-12-07T05:01:15;96094.75;;;9.78
20867;BMP280;10593;48.398;10.698;2022-12-07T05:03:41;96092.19;;;9.78
20867;BMP280;10593;48.398;10.698;2022-12-07T05:06:09;96093.94;;;9.77
20867;BMP280;10593;48.398;10.698;2022-12-07T05:08:35;96088.81;;;9.77
20867;BMP280;10593;48.398;10.698;2022-12-07T05:11:04;96095.63;;;9.77
20867;BMP280;10593;48.398;10.698;2022-12-07T05:13:31;96078.56;;;9.76
20867;BMP280;10593;48.398;10.698;2022-12-07T05:15:57;96090.50;;;9.77
20867;BMP280;10593;48.398;10.698;2022-12-07T05:18:22;96088.81;;;9.76
20867;BMP280;10593;48.398;10.698;2022-12-07T05:20:48;96087.94;;;9.77
20867;BMP280;10593;48.398;10.698;2022-12-07T05:23:14;96080.25;;;9.77
20867;BMP280;10593;48.398;10.698;2022-12-07T05:25:40;96084.56;;;9.75
20867;BMP280;10593;48.398;10.698;2022-12-07T05:28:06;96091.38;;;9.76
20867;BMP280;10593;48.398;10.698;2022-12-07T05:30:32;96082.84;;;9.75
20867;BMP280;10593;48.398;10.698;2022-12-07T05:32:58;96079.44;;;9.75
20867;BMP280;10593;48.398;10.698;2022-12-07T05:35:24;96082.84;;;9.75
20867;BMP280;10593;48.398;10.698;2022-12-07T05:37:49;96077.75;;;9.74
20867;BMP280;10593;48.398;10.698;2022-12-07T05:40:16;96076.00;;;9.74
20867;BMP280;10593;48.398;10.698;2022-12-07T05:42:42;96091.41;;;9.74
20867;BMP280;10593;48.398;10.698;2022-12-07T05:45:09;96092.25;;;9.75
20867;BMP280;10593;48.398;10.698;2022-12-07T05:47:36;96082.00;;;9.75
20867;BMP280;10593;48.398;10.698;2022-12-07T05:50:03;96085.44;;;9.74
20867;BMP280;10593;48.398;10.698;2022-12-07T05:52:29;96087.13;;;9.75
20867;BMP280;10593;48.398;10.698;2022-12-07T05:54:55;96085.44;;;9.74
20867;BMP280;10593;48.398;10.698;2022-12-07T05:57:21;96082.00;;;9.73
20867;BMP280;10593;48.398;10.698;2022-12-07T05:59:46;96082.00;;;9.73
20867;BMP280;10593;48.398;10.698;2022-12-07T06:02:15;96081.19;;;9.73
20867;BMP280;10593;48.398;10.698;2022-12-07T06:04:46;96084.63;;;9.72
20867;BMP280;10593;48.398;10.698;2022-12-07T06:07:15;96077.75;;;9.72
20867;BMP280;10593;48.398;10.698;2022-12-07T06:09:41;96082.06;;;9.72
20867;BMP280;10593;48.398;10.698;2022-12-07T06:12:12;96090.63;;;9.71
20867;BMP280;10593;48.398;10.698;2022-12-07T06:14:58;96094.06;;;9.70
20867;BMP280;10593;48.398;10.698;2022-12-07T06:17:24;96085.50;;;9.69
20867;BMP280;10593;48.398;10.698;2022-12-07T06:19:50;96090.63;;;9.69
20867;BMP280;10593;48.398;10.698;2022-12-07T06:22:16;96089.81;;;9.69
20867;BMP280;10593;48.398;10.698;2022-12-07T06:24:42;96096.63;;;9.70
20867;BMP280;10593;48.398;10.698;2022-12-07T06:27:08;96097.50;;;9.69
20867;BMP280;10593;48.398;10.698;2022-12-07T06:29:34;96097.50;;;9.69
20867;BMP280;10593;48.398;10.698;2022-12-07T06:32:00;96095.78;;;9.68
20867;BMP280;10593;48.398;10.698;2022-12-07T06:34:26;96093.22;;;9.68
20867;BMP280;10593;48.398;10.698;2022-12-07T06:36:53;96094.94;;;9.67
20867;BMP280;10593;48.398;10.698;2022-12-07T06:39:30;96100.09;;;9.67
20867;BMP280;10593;48.398;10.698;2022-12-07T06:41:56;96101.78;;;9.67
20867;BMP280;10593;48.398;10.698;2022-12-07T06:44:23;96096.66;;;9.67
20867;BMP280;10593;48.398;10.698;2022-12-07T06:46:50;96096.66;;;9.67
20867;BMP280;10593;48.398;10.698;2022-12-07T06:49:16;96099.22;;;9.67
20867;BMP280;10593;48.398;10.698;2022-12-07T06:51:42;96099.22;;;9.67
20867;BMP280;10593;48.398;10.698;2022-12-07T06:54:13;96094.16;;;9.64
20867;BMP280;10593;48.398;10.698;2022-12-07T06:56:40;96100.13;;;9.64
20867;BMP280;10593;48.398;10.698;2022-12-07T06:59:06;96094.16;;;9.64
20867;BMP280;10593;48.398;10.698;2022-12-07T07:01:34;96094.16;;;9.64
20867;BMP280;10593;48.398;10.698;2022-12-07T07:04:01;96093.31;;;9.63
20867;BMP280;10593;48.398;10.698;2022-12-07T07:06:27;96086.50;;;9.62
20867;BMP280;10593;48.398;10.698;2022-12-07T07:08:52;96096.75;;;9.62
20867;BMP280;10593;48.398;10.698;2022-12-07T07:11:18;96096.75;;;9.62
20867;BMP280;10593;48.398;10.698;2022-12-07T07:13:45;96101.03;;;9.62
20867;BMP280;10593;48.398;10.698;2022-12-07T07:16:12;96096.75;;;9.62
20867;BMP280;10593;48.398;10.698;2022-12-07T07:18:37;96097.63;;;9.61
20867;BMP280;10593;48.398;10.698;2022-12-07T07:21:03;96095.09;;;9.60
20867;BMP280;10593;48.398;10.698;2022-12-07T07:23:29;96105.31;;;9.61
20867;BMP280;10593;48.398;10.698;2022-12-07T07:25:55;96103.59;;;9.60
20867;BMP280;10593;48.398;10.698;2022-12-07T07:28:21;96109.59;;;9.61
20867;BMP280;10593;48.398;10.698;2022-12-07T07:30:47;96113.03;;;9.60
20867;BMP280;10593;48.398;10.698;2022-12-07T07:33:12;96115.59;;;9.60
20867;BMP280;10593;48.398;10.698;2022-12-07T07:35:38;96124.16;;;9.59
20867;BMP280;10593;48.398;10.698;2022-12-07T07:38:05;96126.72;;;9.59
20867;BMP280;10593;48.398;10.698;2022-12-07T07:40:31;96119.91;;;9.58
20867;BMP280;10593;48.398;10.698;2022-12-07T07:42:57;96114.75;;;9.59
20867;BMP280;10593;48.398;10.698;2022-12-07T07:45:25;96116.47;;;9.59
20867;BMP280;10593;48.398;10.698;2022-12-07T07:47:51;96119.03;;;9.59
20867;BMP280;10593;48.398;10.698;2022-12-07T07:50:18;96119.91;;;9.58
20867;BMP280;10593;48.398;10.698;2022-12-07T07:52:44;96119.03;;;9.59
20867;BMP280;10593;48.398;10.698;2022-12-07T07:55:11;96114.78;;;9.58
20867;BMP280;10593;48.398;10.698;2022-12-07T07:57:38;96105.34;;;9.58
20867;BMP280;10593;48.398;10.698;2022-12-07T08:00:08;96096.84;;;9.58
20867;BMP280;10593;48.398;10.698;2022-12-07T08:02:34;96104.53;;;9.58
20867;BMP280;10593;48.398;10.698;2022-12-07T08:05:00;96105.34;;;9.58
20867;BMP280;10593;48.398;10.698;2022-12-07T08:07:27;96109.66;;;9.58
20867;BMP280;10593;48.398;10.698;2022-12-07T08:09:53;96118.19;;;9.58
20867;BMP280;10593;48.398;10.698;2022-12-07T08:12:19;96116.53;;;9.56
20867;BMP280;10593;48.398;10.698;2022-12-07T08:14:44;96125.03;;;9.58
20867;BMP280;10593;48.398;10.698;2022-12-07T08:17:10;96134.44;;;9.57
20867;BMP280;10593;48.398;10.698;2022-12-07T08:19:36;96131.88;;;9.59
20867;BMP280;10593;48.398;10.698;2022-12-07T08:22:02;96125.03;;;9.58
20867;BMP280;10593;48.398;10.698;2022-12-07T08:24:28;96135.31;;;9.58
20867;BMP280;10593;48.398;10.698;2022-12-07T08:26:54;96138.69;;;9.58
20867;BMP280;10593;48.398;10.698;2022-12-07T08:29:19;96140.44;;;9.58
20867;BMP280;10593;48.398;10.698;2022-12-07T08:31:46;96137.00;;;9.59
20867;BMP280;10593;48.398;10.698;2022-12-07T08:34:12;96125.88;;;9.58
20867;BMP280;10593;48.398;10.698;2022-12-07T08:36:39;96137.00;;;9.59
20867;BMP280;10593;48.398;10.698;2022-12-07T08:39:05;96140.38;;;9.61
20867;BMP280;10593;48.398;10.698;2022-12-07T08:41:31;96126.72;;;9.59
20867;BMP280;10593;48.398;10.698;2022-12-07T08:43:57;96131.00;;;9.60
20867;BMP280;10593;48.398;10.698;2022-12-07T08:46:30;96131.81;;;9.62
20867;BMP280;10593;48.398;10.698;2022-12-07T08:49:12;96132.66;;;9.62
20867;BMP280;10593;48.398;10.698;2022-12-07T08:51:39;96132.66;;;9.62
20867;BMP280;10593;48.398;10.698;2022-12-07T08:54:09;96138.63;;;9.63
20867;BMP280;10593;48.398;10.698;2022-12-07T08:56:36;96136.94;;;9.63
20867;BMP280;10593;48.398;10.698;2022-12-07T08:59:02;96136.88;;;9.65
20867;BMP280;10593;48.398;10.698;2022-12-07T09:01:28;96140.25;;;9.67
20867;BMP280;10593;48.398;10.698;2022-12-07T09:03:54;96142.00;;;9.66
20867;BMP280;10593;48.398;10.698;2022-12-07T09:06:20;96139.38;;;9.69
20867;BMP280;10593;48.398;10.698;2022-12-07T09:08:50;96138.50;;;9.70
20867;BMP280;10593;48.398;10.698;2022-12-07T09:11:16;96138.44;;;9.73
20867;BMP280;10593;48.398;10.698;2022-12-07T09:13:42;96135.06;;;9.73
20867;BMP280;10593;48.398;10.698;2022-12-07T09:16:08;96138.44;;;9.75
20867;BMP280;10593;48.398;10.698;2022-12-07T09:18:33;96137.56;;;9.77
20867;BMP280;10593;48.398;10.698;2022-12-07T09:20:59;96134.94;;;9.79
20867;BMP280;10593;48.398;10.698;2022-12-07T09:23:25;96133.19;;;9.81
20867;BMP280;10593;48.398;10.698;2022-12-07T09:25:51;96134.03;;;9.83
20867;BMP280;10593;48.398;10.698;2022-12-07T09:28:16;96140.81;;;9.87
20867;BMP280;10593;48.398;10.698;2022-12-07T09:30:47;96140.75;;;9.90
20867;BMP280;10593;48.398;10.698;2022-12-07T09:33:13;96144.13;;;9.92
20867;BMP280;10593;48.398;10.698;2022-12-07T09:35:46;96137.25;;;9.94
20867;BMP280;10593;48.398;10.698;2022-12-07T09:38:12;96143.22;;;9.96
20867;BMP280;10593;48.398;10.698;2022-12-07T09:40:38;96139.72;;;9.98
20867;BMP280;10593;48.398;10.698;2022-12-07T09:43:04;96130.28;;;10.00
20867;BMP280;10593;48.398;10.698;2022-12-07T09:45:34;96125.16;;;10.02
20867;BMP280;10593;48.398;10.698;2022-12-07T09:48:03;96126.84;;;10.04
20867;BMP280;10593;48.398;10.698;2022-12-07T09:50:30;96119.09;;;10.06
20867;BMP280;10593;48.398;10.698;2022-12-07T09:53:15;96119.97;;;10.06
20867;BMP280;10593;48.398;10.698;2022-12-07T09:55:43;96116.50;;;10.09
20867;BMP280;10593;48.398;10.698;2022-12-07T09:58:23;96120.75;;;10.10
20867;BMP280;10593;48.398;10.698;2022-12-07T10:00:55;96109.63;;;10.11
20867;BMP280;10593;48.398;10.698;2022-12-07T10:03:22;96111.31;;;10.12
20867;BMP280;10593;48.398;10.698;2022-12-07T10:05:51;96115.56;;;10.13
20867;BMP280;10593;48.398;10.698;2022-12-07T10:08:18;96101.84;;;10.15
20867;BMP280;10593;48.398;10.698;2022-12-07T10:10:50;96099.22;;;10.17
20867;BMP280;10593;48.398;10.698;2022-12-07T10:13:22;96100.03;;;10.19
20867;BMP280;10593;48.398;10.698;2022-12-07T10:15:58;96100.03;;;10.20
20867;BMP280;10593;48.398;10.698;2022-12-07T10:18:36;96094.00;;;10.21
20867;BMP280;10593;48.398;10.698;2022-12-07T10:21:15;96094.88;;;10.22
20867;BMP280;10593;48.398;10.698;2022-12-07T10:26:51;96099.06;;;10.24
20867;BMP280;10593;48.398;10.698;2022-12-07T10:29:37;96095.63;;;10.25
20867;BMP280;10593;48.398;10.698;2022-12-07T10:34:41;96098.19;;;10.27
20867;BMP280;10593;48.398;10.698;2022-12-07T10:39:47;96080.94;;;10.32
20867;BMP280;10593;48.398;10.698;2022-12-07T10:42:29;96085.22;;;10.32
20867;BMP280;10593;48.398;10.698;2022-12-07T10:45:15;96087.78;;;10.32
20867;BMP280;10593;48.398;10.698;2022-12-07T10:47:59;96078.38;;;10.33
20867;BMP280;10593;48.398;10.698;2022-12-07T10:53:51;96076.63;;;10.33
20867;BMP280;10593;48.398;10.698;2022-12-07T10:56:35;96079.19;;;10.35
20867;BMP280;10593;48.398;10.698;2022-12-07T11:01:54;96069.72;;;10.37
20867;BMP280;10593;48.398;10.698;2022-12-07T11:08:13;96074.84;;;10.37
20867;BMP280;10593;48.398;10.698;2022-12-07T11:11:16;96071.47;;;10.37
20867;BMP280;10593;48.398;10.698;2022-12-07T11:14:02;96069.69;;;10.38
20867;BMP280;10593;48.398;10.698;2022-12-07T11:16:46;96067.09;;;10.40
20867;BMP280;10593;48.398;10.698;2022-12-07T11:19:24;96061.94;;;10.41
20867;BMP280;10593;48.398;10.698;2022-12-07T11:22:06;96055.91;;;10.42
20867;BMP280;10593;48.398;10.698;2022-12-07T11:24:51;96059.28;;;10.44
20867;BMP280;10593;48.398;10.698;2022-12-07T11:27:48;96058.41;;;10.45
20867;BMP280;10593;48.398;10.698;2022-12-07T11:33:41;96047.25;;;10.46
20867;BMP280;10593;48.398;10.698;2022-12-07T11:36:30;96054.94;;;10.49
20867;BMP280;10593;48.398;10.698;2022-12-07T11:39:02;96049.78;;;10.49
20867;BMP280;10593;48.398;10.698;2022-12-07T11:41:34;96042.91;;;10.51
20867;BMP280;10593;48.398;10.698;2022-12-07T11:45:00;96036.88;;;10.52
20867;BMP280;10593;48.398;10.698;2022-12-07T11:47:51;96038.56;;;10.53
20867;BMP280;10593;48.398;10.698;2022-12-07T11:50:45;96036.00;;;10.53
20867;BMP280;10593;48.398;10.698;2022-12-07T11:53:55;96036.00;;;10.53
20867;BMP280;10593;48.398;10.698;2022-12-07T11:56:26;96036.81;;;10.54
20867;BMP280;10593;48.398;10.698;2022-12-07T11:59:43;96023.97;;;10.55
20867;BMP280;10593;48.398;10.698;2022-12-07T12:02:22;96023.09;;;10.56
20867;BMP280;10593;48.398;10.698;2022-12-07T12:05:13;96022.19;;;10.57
20867;BMP280;10593;48.398;10.698;2022-12-07T12:07:43;96021.31;;;10.58
20867;BMP280;10593;48.398;10.698;2022-12-07T12:10:51;96024.69;;;10.60
20867;BMP280;10593;48.398;10.698;2022-12-07T12:13:29;96023.00;;;10.61
20867;BMP280;10593;48.398;10.698;2022-12-07T12:16:09;96016.94;;;10.63
20867;BMP280;10593;48.398;10.698;2022-12-07T12:21:26;96013.44;;;10.66
20867;BMP280;10593;48.398;10.698;2022-12-07T12:24:08;96006.59;;;10.66
20867;BMP280;10593;48.398;10.698;2022-12-07T12:26:37;96002.25;;;10.68
20867;BMP280;10593;48.398;10.698;2022-12-07T12:29:07;95997.94;;;10.70
20867;BMP280;10593;48.398;10.698;2022-12-07T12:31:43;96000.50;;;10.70
20867;BMP280;10593;48.398;10.698;2022-12-07T12:42:52;95997.84;;;10.73
20867;BMP280;10593;48.398;10.698;2022-12-07T12:45:30;95997.84;;;10.73
20867;BMP280;10593;48.398;10.698;2022-12-07T12:48:30;95995.34;;;10.72
20867;BMP280;10593;48.398;10.698;2022-12-07T12:54:32;95998.75;;;10.72
20867;BMP280;10593;48.398;10.698;2022-12-07T12:57:27;96003.00;;;10.73
20867;BMP280;10593;48.398;10.698;2022-12-07T12:59:57;95993.59;;;10.72
20867;BMP280;10593;48.398;10.698;2022-12-07T13:02:30;95989.28;;;10.74
20867;BMP280;10593;48.398;10.698;2022-12-07T13:18:40;95979.78;;;10.78
20867;BMP280;10593;48.398;10.698;2022-12-07T13:26:38;95960.00;;;10.81
20867;BMP280;10593;48.398;10.698;2022-12-07T13:29:18;95962.59;;;10.80
20867;BMP280;10593;48.398;10.698;2022-12-07T13:31:50;95956.56;;;10.81
20867;BMP280;10593;48.398;10.698;2022-12-07T13:34:39;95966.81;;;10.82
20867;BMP280;10593;48.398;10.698;2022-12-07T13:37:32;95962.53;;;10.83
20867;BMP280;10593;48.398;10.698;2022-12-07T13:40:01;95960.81;;;10.83
20867;BMP280;10593;48.398;10.698;2022-12-07T13:42:40;95959.91;;;10.84
20867;BMP280;10593;48.398;10.698;2022-12-07T13:45:32;95965.03;;;10.86
20867;BMP280;10593;48.398;10.698;2022-12-07T13:48:55;95951.41;;;10.82
20867;BMP280;10593;48.398;10.698;2022-12-07T13:51:27;95947.94;;;10.83
20867;BMP280;10593;48.398;10.698;2022-12-07T13:53:59;95949.63;;;10.84
20867;BMP280;10593;48.398;10.698;2022-12-07T13:56:48;95952.19;;;10.86
20867;BMP280;10593;48.398;10.698;2022-12-07T13:59:20;95954.69;;;10.87
20867;BMP280;10593;48.398;10.698;2022-12-07T14:01:49;95956.38;;;10.88
20867;BMP280;10593;48.398;10.698;2022-12-07T14:04:34;95952.09;;;10.89
20867;BMP280;10593;48.398;10.698;2022-12-07T14:07:27;95953.78;;;10.90
20867;BMP280;10593;48.398;10.698;2022-12-07T14:09:59;95949.50;;;10.90
20867;BMP280;10593;48.398;10.698;2022-12-07T14:12:26;95952.91;;;10.91
20867;BMP280;10593;48.398;10.698;2022-12-07T14:14:53;95950.31;;;10.92
20867;BMP280;10593;48.398;10.698;2022-12-07T14:17:23;95949.44;;;10.93
20867;BMP280;10593;48.398;10.698;2022-12-07T14:20:01;95956.25;;;10.94
20867;BMP280;10593;48.398;10.698;2022-12-07T14:27:38;95949.44;;;10.93
20867;BMP280;10593;48.398;10.698;2022-12-07T14:30:05;95952.81;;;10.95
20867;BMP280;10593;48.398;10.698;2022-12-07T14:32:32;95951.91;;;10.96
20867;BMP280;10593;48.398;10.698;2022-12-07T14:35:10;95948.53;;;10.96
20867;BMP280;10593;48.398;10.698;2022-12-07T14:37:38;95942.44;;;10.98
20867;BMP280;10593;48.398;10.698;2022-12-07T14:40:05;95950.16;;;10.98
20867;BMP280;10593;48.398;10.698;2022-12-07T14:42:32;95932.16;;;10.98
20867;BMP280;10593;48.398;10.698;2022-12-07T14:44:58;95945.88;;;10.99
20867;BMP280;10593;48.398;10.698;2022-12-07T14:47:26;95947.56;;;11.00
20867;BMP280;10593;48.398;10.698;2022-12-07T14:49:52;95945.81;;;11.00
20867;BMP280;10593;48.398;10.698;2022-12-07T14:52:23;95945.81;;;11.00
20867;BMP280;10593;48.398;10.698;2022-12-07T14:54:50;95939.78;;;11.01
20867;BMP280;10593;48.398;10.698;2022-12-07T14:57:16;95939.78;;;11.01
20867;BMP280;10593;48.398;10.698;2022-12-07T14:59:41;95938.94;;;11.02
20867;BMP280;10593;48.398;10.698;2022-12-07T15:02:10;95938.09;;;11.02
20867;BMP280;10593;48.398;10.698;2022-12-07T15:04:36;95945.75;;;11.03
20867;BMP280;10593;48.398;10.698;2022-12-07T15:07:05;95944.91;;;11.03
20867;BMP280;10593;48.398;10.698;2022-12-07T15:09:31;95947.47;;;11.03
20867;BMP280;10593;48.398;10.698;2022-12-07T15:11:57;95942.34;;;11.03
20867;BMP280;10593;48.398;10.698;2022-12-07T15:14:22;95945.75;;;11.03
20867;BMP280;10593;48.398;10.698;2022-12-07T15:16:48;95943.19;;;11.03
20867;BMP280;10593;48.398;10.698;2022-12-07T15:19:23;95945.75;;;11.03
20867;BMP280;10593;48.398;10.698;2022-12-07T15:21:51;95940.63;;;11.03
20867;BMP280;10593;48.398;10.698;2022-12-07T15:24:17;95940.63;;;11.03
20867;BMP280;10593;48.398;10.698;2022-12-07T15:26:43;95941.44;;;11.04
20867;BMP280;10593;48.398;10.698;2022-12-07T15:29:10;95942.31;;;11.04
20867;BMP280;10593;48.398;10.698;2022-12-07T15:31:36;95941.44;;;11.04
20867;BMP280;10593;48.398;10.698;2022-12-07T15:34:03;95934.59;;;11.04
20867;BMP280;10593;48.398;10.698;2022-12-07T15:36:31;95938.06;;;11.03
20867;BMP280;10593;48.398;10.698;2022-12-07T15:38:58;95943.19;;;11.03
20867;BMP280;10593;48.398;10.698;2022-12-07T15:41:25;95938.00;;;11.05
20867;BMP280;10593;48.398;10.698;2022-12-07T15:43:51;95936.31;;;11.04
20867;BMP280;10593;48.398;10.698;2022-12-07T15:46:38;95936.38;;;11.02
20867;BMP280;10593;48.398;10.698;2022-12-07T15:49:11;95928.66;;;11.02
20867;BMP280;10593;48.398;10.698;2022-12-07T15:51:37;95929.50;;;11.01
20867;BMP280;10593;48.398;10.698;2022-12-07T15:54:03;95932.06;;;11.01
20867;BMP280;10593;48.398;10.698;2022-12-07T15:56:29;95936.38;;;11.01
20867;BMP280;10593;48.398;10.698;2022-12-07T15:58:56;95932.97;;;11.00